createdAt,value
2018-07-16T00:01:02.841Z,5.00
2018-07-16T00:03:31.809Z,4.80
2018-07-16T00:05:59.757Z,4.97
2018-07-16T00:08:27.817Z,4.73
2018-07-16T00:10:55.859Z,4.80
2018-07-16T00:13:24.399Z,5.07
2018-07-16T00:15:53.312Z,4.90
2018-07-16T00:18:21.977Z,4.53
2018-07-16T00:20:50.180Z,4.70
2018-07-16T00:23:20.824Z,4.53
2018-07-16T00:25:49.305Z,5.60
2018-07-16T00:28:17.324Z,5.40
2018-07-16T00:30:45.990Z,5.77
2018-07-16T00:33:14.060Z,5.77
2018-07-16T00:35:42.069Z,5.13
2018-07-16T00:38:10.203Z,5.40
2018-07-16T00:40:38.208Z,5.87
2018-07-16T00:43:06.572Z,6.13
2018-07-16T00:45:34.640Z,6.60
2018-07-16T00:48:02.613Z,5.70
2018-07-16T00:50:30.872Z,5.73
2018-07-16T00:52:58.820Z,5.50
2018-07-16T00:55:26.993Z,6.10
2018-07-16T00:57:54.909Z,6.30
2018-07-16T01:00:22.884Z,6.03
2018-07-16T01:02:50.905Z,5.93
2018-07-16T01:05:20.548Z,6.17
2018-07-16T01:07:48.833Z,6.00
2018-07-16T01:10:16.993Z,5.83
2018-07-16T01:12:44.991Z,5.87
2018-07-16T01:15:13.030Z,5.80
2018-07-16T01:17:41.592Z,5.97
2018-07-16T01:20:09.604Z,6.20
2018-07-16T01:22:37.580Z,5.90
2018-07-16T01:25:05.717Z,6.53
2018-07-16T01:27:33.733Z,6.33
2018-07-16T01:30:01.731Z,5.67
2018-07-16T01:32:31.856Z,5.90
2018-07-16T01:34:59.830Z,6.43
2018-07-16T01:37:27.737Z,6.20
2018-07-16T01:40:00.479Z,5.70
2018-07-16T01:42:28.440Z,6.23
2018-07-16T01:44:56.415Z,6.10
2018-07-16T01:47:24.624Z,6.50
2018-07-16T01:49:52.626Z,6.30
2018-07-16T01:52:20.749Z,6.30
2018-07-16T01:54:48.837Z,6.40
2018-07-16T01:57:16.890Z,6.67
2018-07-16T01:59:45.017Z,6.60
2018-07-16T02:02:13.356Z,6.13
2018-07-16T02:04:41.292Z,6.80
2018-07-16T02:07:10.388Z,6.80
2018-07-16T02:09:38.461Z,6.47
2018-07-16T02:12:06.641Z,6.40
2018-07-16T02:14:34.796Z,6.20
2018-07-16T02:17:03.126Z,6.87
2018-07-16T02:19:31.040Z,6.90
2018-07-16T02:21:58.991Z,7.30
2018-07-16T02:24:28.210Z,6.30
2018-07-16T02:26:56.110Z,6.53
2018-07-16T02:29:24.429Z,8.37
2018-07-16T02:31:52.443Z,6.63
2018-07-16T02:34:20.352Z,6.53
2018-07-16T02:36:48.327Z,6.00
2018-07-16T02:39:16.514Z,6.73
2018-07-16T02:41:44.457Z,7.30
2018-07-16T02:44:12.433Z,6.60
2018-07-16T02:46:40.639Z,6.80
2018-07-16T02:49:08.593Z,6.53
2018-07-16T02:51:36.892Z,6.53
2018-07-16T02:54:05.639Z,6.87
2018-07-16T02:56:33.948Z,6.70
2018-07-16T02:59:01.852Z,6.93
2018-07-16T03:01:30.041Z,6.37
2018-07-16T03:03:58.084Z,6.57
2018-07-16T03:06:26.235Z,7.17
2018-07-16T03:08:55.432Z,6.37
2018-07-16T03:11:23.532Z,6.60
2018-07-16T03:13:51.463Z,6.77
2018-07-16T03:16:19.422Z,6.73
2018-07-16T03:18:47.389Z,6.97
2018-07-16T03:21:15.909Z,6.73
2018-07-16T03:23:43.862Z,7.30
2018-07-16T03:26:11.916Z,7.23
2018-07-16T03:28:40.237Z,7.10
2018-07-16T03:31:08.226Z,7.07
2018-07-16T03:33:37.901Z,7.20
2018-07-16T03:36:06.293Z,7.50
2018-07-16T03:38:34.555Z,7.33
2018-07-16T03:41:03.720Z,7.20
2018-07-16T03:43:31.721Z,7.17
2018-07-16T03:45:59.773Z,7.83
2018-07-16T03:48:27.804Z,6.77
2018-07-16T03:50:55.802Z,7.23
2018-07-16T03:53:23.764Z,7.07
2018-07-16T03:55:52.109Z,7.53
2018-07-16T03:58:20.844Z,7.10
2018-07-16T04:00:48.806Z,7.67
2018-07-16T04:03:17.822Z,7.20
2018-07-16T04:05:45.758Z,7.87
2018-07-16T04:08:13.700Z,7.77
2018-07-16T04:10:42.976Z,7.90
2018-07-16T04:13:11.094Z,7.53
2018-07-16T04:15:39.052Z,7.40
2018-07-16T04:18:11.613Z,7.67
2018-07-16T04:20:39.683Z,7.53
2018-07-16T04:23:07.848Z,7.37
2018-07-16T04:25:35.928Z,8.30
2018-07-16T04:28:04.435Z,7.13
2018-07-16T04:30:32.484Z,8.03
2018-07-16T04:33:00.814Z,8.00
2018-07-16T04:35:29.744Z,7.17
2018-07-16T04:37:57.836Z,7.10
2018-07-16T04:40:26.021Z,7.63
2018-07-16T04:42:54.024Z,7.63
2018-07-16T04:45:22.347Z,7.80
2018-07-16T04:47:50.100Z,7.77
2018-07-16T04:50:19.892Z,7.93
2018-07-16T04:52:47.850Z,8.20
2018-07-16T04:55:15.756Z,7.97
2018-07-16T04:57:43.980Z,8.00
2018-07-16T05:00:11.922Z,8.37
2018-07-16T05:02:39.969Z,7.93
2018-07-16T05:05:07.959Z,8.37
2018-07-16T05:07:36.296Z,8.30
2018-07-16T05:10:04.449Z,7.90
2018-07-16T05:12:33.638Z,7.77
2018-07-16T05:15:01.808Z,8.13
2018-07-16T05:17:30.033Z,7.90
2018-07-16T05:19:58.004Z,7.37
2018-07-16T05:22:26.996Z,8.20
2018-07-16T05:24:55.708Z,7.87
2018-07-16T05:27:25.792Z,8.03
2018-07-16T05:29:54.398Z,7.83
2018-07-16T05:32:22.681Z,8.83
2018-07-16T05:34:51.053Z,8.33
2018-07-16T05:37:20.801Z,8.23
2018-07-16T05:39:49.101Z,14.47
2018-07-16T05:42:17.088Z,9.40
2018-07-16T05:44:45.830Z,8.07
2018-07-16T05:47:14.546Z,7.97
2018-07-16T05:49:43.260Z,8.80
2018-07-16T05:52:11.262Z,8.47
2018-07-16T05:54:39.515Z,8.30
2018-07-16T05:57:07.558Z,7.57
2018-07-16T05:59:35.636Z,7.73
2018-07-16T06:02:03.930Z,8.50
2018-07-16T06:04:31.875Z,8.67
2018-07-16T06:06:59.969Z,8.23
2018-07-16T06:09:29.118Z,7.73
2018-07-16T06:11:57.067Z,8.23
2018-07-16T06:14:25.347Z,8.83
2018-07-16T06:16:54.841Z,8.13
2018-07-16T06:19:23.000Z,8.47
2018-07-16T06:21:51.529Z,8.77
2018-07-16T06:24:19.650Z,8.50
2018-07-16T06:26:47.929Z,8.63
2018-07-16T06:29:15.905Z,7.70
2018-07-16T06:31:45.598Z,8.50
2018-07-16T06:34:15.738Z,8.20
2018-07-16T06:36:43.875Z,8.00
2018-07-16T06:39:11.883Z,7.90
2018-07-16T06:41:40.567Z,8.17
2018-07-16T06:44:09.673Z,8.13
2018-07-16T06:46:37.736Z,7.10
2018-07-16T06:49:05.798Z,13.57
2018-07-16T06:51:33.741Z,7.17
2018-07-16T06:54:01.799Z,6.53
2018-07-16T06:56:29.733Z,5.83
2018-07-16T06:58:57.674Z,6.00
2018-07-16T07:01:25.647Z,6.13
2018-07-16T07:03:53.589Z,5.90
2018-07-16T07:06:21.569Z,5.70
2018-07-16T07:08:50.253Z,5.53
2018-07-16T07:11:18.604Z,6.00
2018-07-16T07:13:46.684Z,5.50
2018-07-16T07:16:14.779Z,5.80
2018-07-16T07:18:42.963Z,5.70
2018-07-16T07:21:12.576Z,8.37
2018-07-16T07:23:40.661Z,5.57
2018-07-16T07:26:09.402Z,6.60
2018-07-16T07:28:37.528Z,5.93
2018-07-16T07:31:05.753Z,4.93
2018-07-16T07:33:34.264Z,3.87
2018-07-16T07:36:02.504Z,3.50
2018-07-16T07:38:30.664Z,3.43
2018-07-16T07:40:58.729Z,3.90
2018-07-16T07:43:27.701Z,3.30
2018-07-16T07:45:56.554Z,3.50
2018-07-16T07:48:24.757Z,4.00
2018-07-16T07:50:52.851Z,3.03
2018-07-16T07:53:20.847Z,3.67
2018-07-16T07:55:48.901Z,3.40
2018-07-16T07:58:17.115Z,3.33
2018-07-16T08:00:45.629Z,3.30
2018-07-16T08:03:15.655Z,3.80
2018-07-16T08:05:50.221Z,2.90
2018-07-16T08:08:18.237Z,2.90
2018-07-16T08:10:46.352Z,3.10
2018-07-16T08:13:14.379Z,2.90
2018-07-16T08:15:43.077Z,3.23
2018-07-16T08:18:12.765Z,7.13
2018-07-16T08:20:41.780Z,3.23
2018-07-16T08:23:10.325Z,2.87
2018-07-16T08:25:38.541Z,2.50
2018-07-16T08:28:06.847Z,2.97
2018-07-16T08:30:34.841Z,2.73
2018-07-16T08:33:03.450Z,3.27
2018-07-16T08:35:33.037Z,3.40
2018-07-16T08:38:01.281Z,3.50
2018-07-16T08:40:29.604Z,3.23
2018-07-16T08:42:57.629Z,2.97
2018-07-16T08:45:25.825Z,2.80
2018-07-16T08:47:54.505Z,3.30
2018-07-16T08:50:22.923Z,2.60
2018-07-16T08:52:51.004Z,2.70
2018-07-16T08:55:20.304Z,2.77
2018-07-16T08:57:51.705Z,2.97
2018-07-16T09:00:19.891Z,2.80
2018-07-16T09:02:48.339Z,2.70
2018-07-16T09:05:16.680Z,2.50
2018-07-16T09:07:47.365Z,2.70
2018-07-16T09:10:15.521Z,2.90
2018-07-16T09:12:44.836Z,2.73
2018-07-16T09:15:13.698Z,2.70
2018-07-16T09:17:42.004Z,2.80
2018-07-16T09:20:11.482Z,2.73
2018-07-16T09:22:40.697Z,2.70
2018-07-16T09:25:09.778Z,3.40
2018-07-16T09:27:37.750Z,2.63
2018-07-16T09:30:07.309Z,2.50
2018-07-16T09:32:35.833Z,2.63
2018-07-16T09:35:04.305Z,2.90
2018-07-16T09:37:32.474Z,3.00
2018-07-16T09:40:03.273Z,3.00
2018-07-16T09:42:31.296Z,2.80
2018-07-16T09:44:59.466Z,2.80
2018-07-16T09:47:28.417Z,2.80
2018-07-16T09:49:57.812Z,3.17
2018-07-16T09:52:25.866Z,3.00
2018-07-16T09:54:54.748Z,3.20
2018-07-16T09:57:22.744Z,3.10
2018-07-16T09:59:50.941Z,2.83
2018-07-16T10:02:19.398Z,2.67
2018-07-16T10:04:49.660Z,2.57
2018-07-16T10:07:17.753Z,2.73
2018-07-16T10:09:46.892Z,3.23
2018-07-16T10:12:16.221Z,3.10
2018-07-16T10:14:46.476Z,3.53
2018-07-16T10:17:14.929Z,3.40
2018-07-16T10:19:44.360Z,3.40
2018-07-16T10:22:12.905Z,3.40
2018-07-16T10:24:40.885Z,3.37
2018-07-16T10:27:09.838Z,3.20
2018-07-16T10:29:37.912Z,3.10
2018-07-16T10:32:06.344Z,3.00
2018-07-16T10:34:35.107Z,3.03
2018-07-16T10:37:03.391Z,3.23
2018-07-16T10:39:31.545Z,3.23
2018-07-16T10:42:00.477Z,3.10
2018-07-16T10:44:28.755Z,3.40
2018-07-16T10:46:56.949Z,2.73
2018-07-16T10:49:26.703Z,3.10
2018-07-16T10:51:55.567Z,3.20
2018-07-16T10:54:24.489Z,3.63
2018-07-16T10:56:52.666Z,3.30
2018-07-16T10:59:22.699Z,3.40
2018-07-16T11:01:50.753Z,3.30
2018-07-16T11:04:20.380Z,3.40
2018-07-16T11:06:48.601Z,3.10
2018-07-16T11:09:16.978Z,2.93
2018-07-16T11:11:47.099Z,2.60
2018-07-16T11:14:17.125Z,3.00
2018-07-16T11:16:45.793Z,2.90
2018-07-16T11:19:15.172Z,3.00
2018-07-16T11:21:43.313Z,2.70
2018-07-16T11:24:15.311Z,2.83
2018-07-16T11:26:43.360Z,3.20
2018-07-16T11:29:12.025Z,3.13
2018-07-16T11:31:40.306Z,3.10
2018-07-16T11:34:08.609Z,5.63
2018-07-16T11:36:38.160Z,3.40
2018-07-16T11:39:07.858Z,3.30
2018-07-16T11:41:36.932Z,3.20
2018-07-16T11:44:07.244Z,3.43
2018-07-16T11:46:35.253Z,3.47
2018-07-16T11:49:05.215Z,3.30
2018-07-16T11:51:37.132Z,2.90
2018-07-16T11:54:05.361Z,3.00
2018-07-16T11:56:33.642Z,2.47
2018-07-16T11:59:06.954Z,2.60
2018-07-16T12:01:34.919Z,2.70
2018-07-16T12:04:04.199Z,2.57
2018-07-16T12:06:32.647Z,2.53
2018-07-16T12:09:00.991Z,2.70
2018-07-16T12:11:30.501Z,3.27
2018-07-16T12:13:59.547Z,2.40
2018-07-16T12:16:29.518Z,2.30
2018-07-16T12:18:57.950Z,3.03
2018-07-16T12:21:25.928Z,2.90
2018-07-16T12:23:54.860Z,2.70
2018-07-16T12:26:24.361Z,2.70
2018-07-16T12:28:52.804Z,4.13
2018-07-16T12:31:20.989Z,3.90
2018-07-16T12:33:50.125Z,4.00
2018-07-16T12:36:18.177Z,4.70
2018-07-16T12:38:46.911Z,5.20
2018-07-16T12:41:15.270Z,4.57
2018-07-16T12:43:46.710Z,5.50
2018-07-16T12:46:15.473Z,9.27
2018-07-16T12:48:45.418Z,2.70
2018-07-16T12:51:13.932Z,2.73
2018-07-16T12:53:42.833Z,2.10
2018-07-16T12:56:11.329Z,1.60
2018-07-16T12:58:39.357Z,2.50
2018-07-16T13:01:07.523Z,2.60
2018-07-16T13:03:35.945Z,3.13
2018-07-16T13:06:04.393Z,2.47
2018-07-16T13:08:33.832Z,4.60
2018-07-16T13:11:02.279Z,3.50
2018-07-16T13:13:30.656Z,3.40
2018-07-16T13:15:59.505Z,3.97
2018-07-16T13:18:29.299Z,3.60
2018-07-16T13:20:59.444Z,4.00
2018-07-16T13:23:27.779Z,4.00
2018-07-16T13:25:57.980Z,3.60
2018-07-16T13:28:28.045Z,3.40
2018-07-16T13:30:58.428Z,3.50
2018-07-16T13:33:26.628Z,3.53
2018-07-16T13:35:55.589Z,3.00
2018-07-16T13:38:24.022Z,3.50
2018-07-16T13:40:53.344Z,3.20
2018-07-16T13:43:23.103Z,3.27
2018-07-16T13:45:52.364Z,3.00
2018-07-16T13:48:20.603Z,3.17
2018-07-16T13:50:50.113Z,3.30
2018-07-16T13:53:19.208Z,3.47
2018-07-16T13:55:47.188Z,3.03
2018-07-16T13:58:15.623Z,3.03
2018-07-16T14:00:43.626Z,3.00
2018-07-16T14:03:11.813Z,2.83
2018-07-16T14:05:40.005Z,3.10
2018-07-16T14:08:08.304Z,3.03
2018-07-16T14:10:37.296Z,3.53
2018-07-16T14:13:06.065Z,3.47
2018-07-16T14:15:34.209Z,3.40
2018-07-16T14:18:02.476Z,3.40
2018-07-16T14:20:30.880Z,2.93
2018-07-16T14:22:58.975Z,2.90
2018-07-16T14:25:27.498Z,3.43
2018-07-16T14:27:56.032Z,3.07
2018-07-16T14:30:24.285Z,3.40
2018-07-16T14:32:52.988Z,3.40
2018-07-16T14:35:21.309Z,3.47
2018-07-16T14:37:49.233Z,3.10
2018-07-16T14:40:18.106Z,3.40
2018-07-16T14:42:46.081Z,3.20
2018-07-16T14:45:14.455Z,3.60
2018-07-16T14:47:42.730Z,3.50
2018-07-16T14:50:11.007Z,3.10
2018-07-16T14:52:40.597Z,3.30
2018-07-16T14:56:11.454Z,3.17
2018-07-16T14:58:40.531Z,3.00
2018-07-16T15:01:08.908Z,2.97
2018-07-16T15:03:37.302Z,3.33
2018-07-16T15:06:06.013Z,3.13
2018-07-16T15:08:34.504Z,3.27
2018-07-16T15:11:03.315Z,3.63
2018-07-16T15:13:31.561Z,3.00
2018-07-16T15:16:00.026Z,3.00
2018-07-16T15:18:28.264Z,2.67
2018-07-16T15:20:56.686Z,2.70
2018-07-16T15:23:25.783Z,2.83
2018-07-16T15:25:56.333Z,2.70
2018-07-16T15:28:25.445Z,2.80
2018-07-16T15:30:54.826Z,2.90
2018-07-16T15:33:24.564Z,2.80
2018-07-16T15:35:53.544Z,2.93
2018-07-16T15:38:23.384Z,3.07
2018-07-16T15:40:51.507Z,3.20
2018-07-16T15:43:19.701Z,2.90
2018-07-16T15:48:33.502Z,3.10
2018-07-16T15:51:01.986Z,2.70
2018-07-16T15:53:30.567Z,2.87
2018-07-16T15:55:58.909Z,2.80
2018-07-16T15:58:26.892Z,2.83
2018-07-16T16:00:56.850Z,2.80
2018-07-16T16:03:25.023Z,3.00
2018-07-16T16:05:53.076Z,2.90
2018-07-16T16:08:21.142Z,3.57
2018-07-16T16:10:49.085Z,3.00
2018-07-16T16:13:18.799Z,3.30
2018-07-16T16:15:47.381Z,3.60
2018-07-16T16:18:16.512Z,3.57
2018-07-16T16:20:45.077Z,2.73
2018-07-16T16:23:13.149Z,2.77
2018-07-16T16:25:41.274Z,2.87
2018-07-16T16:28:10.397Z,2.87
2018-07-16T16:30:39.394Z,2.70
2018-07-16T16:33:07.506Z,2.70
2018-07-16T16:35:35.755Z,2.73
2018-07-16T16:38:05.803Z,2.70
2018-07-16T16:40:37.051Z,2.80
2018-07-16T16:43:05.809Z,3.00
2018-07-16T16:45:34.361Z,2.90
2018-07-16T16:48:03.313Z,2.70
2018-07-16T16:50:54.953Z,3.00
2018-07-16T16:53:48.090Z,3.23
2018-07-16T16:56:18.866Z,3.10
2018-07-16T16:59:17.511Z,2.80
2018-07-16T17:01:48.319Z,2.87
2018-07-16T17:04:16.694Z,3.03
2018-07-16T17:06:45.403Z,3.30
2018-07-16T17:09:17.492Z,2.87
2018-07-16T17:11:45.948Z,3.00
2018-07-16T17:14:14.101Z,3.03
2018-07-16T17:16:43.198Z,2.80
2018-07-16T17:19:11.743Z,3.08
2018-07-16T17:21:43.101Z,2.90
2018-07-16T17:24:11.199Z,3.43
2018-07-16T17:26:40.709Z,3.10
2018-07-16T17:29:08.948Z,3.03
2018-07-16T17:31:39.053Z,2.90
2018-07-16T17:34:08.274Z,3.00
2018-07-16T17:36:36.961Z,3.40
2018-07-16T17:39:07.181Z,3.53
2018-07-16T17:41:36.997Z,3.50
2018-07-16T17:44:05.122Z,3.90
2018-07-16T17:46:35.641Z,4.00
2018-07-16T17:49:06.039Z,4.00
2018-07-16T17:51:35.229Z,3.87
2018-07-16T17:54:05.595Z,3.43
2018-07-16T17:56:33.953Z,3.50
2018-07-16T17:59:02.982Z,2.97
2018-07-16T18:01:31.321Z,3.50
2018-07-16T18:04:01.556Z,3.50
2018-07-16T18:06:30.696Z,3.57
2018-07-16T18:08:59.577Z,3.13
2018-07-16T18:11:30.657Z,3.03
2018-07-16T18:14:00.317Z,3.40
2018-07-16T18:16:31.077Z,4.90
2018-07-16T18:19:00.396Z,5.37
2018-07-16T18:21:29.185Z,4.87
2018-07-16T18:23:59.962Z,4.83
2018-07-16T18:26:28.624Z,3.40
2018-07-16T18:28:58.739Z,2.90
2018-07-16T18:31:26.717Z,3.60
2018-07-16T18:33:57.323Z,2.90
2018-07-16T18:36:28.706Z,2.73
2018-07-16T18:39:01.770Z,3.07
2018-07-16T18:41:32.316Z,3.23
2018-07-16T18:44:03.225Z,3.30
2018-07-16T18:46:35.644Z,3.10
2018-07-16T18:49:06.838Z,3.03
2018-07-16T18:51:35.896Z,3.50
2018-07-16T18:54:04.656Z,3.60
2018-07-16T18:56:33.327Z,3.47
2018-07-16T18:59:06.353Z,2.90
2018-07-16T19:01:36.625Z,2.83
2018-07-16T19:04:04.663Z,3.00
2018-07-16T19:06:33.531Z,3.43
2018-07-16T19:09:03.909Z,3.70
2018-07-16T19:11:36.891Z,3.10
2018-07-16T19:14:06.642Z,4.43
2018-07-16T19:16:35.705Z,5.87
2018-07-16T19:19:07.920Z,5.60
2018-07-16T19:21:36.593Z,5.00
2018-07-16T19:24:04.990Z,4.03
2018-07-16T19:26:33.264Z,3.60
2018-07-16T19:29:01.328Z,3.20
2018-07-16T19:31:33.635Z,2.97
2018-07-16T19:34:02.564Z,3.20
2018-07-16T19:36:32.094Z,3.10
2018-07-16T19:39:01.321Z,3.03
2018-07-16T19:41:31.445Z,2.90
2018-07-16T19:44:01.182Z,3.00
2018-07-16T19:46:30.782Z,3.60
2018-07-16T19:49:00.405Z,3.40
2018-07-16T19:51:31.526Z,3.10
2018-07-16T19:54:01.577Z,3.27
2018-07-16T19:56:34.317Z,3.23
2018-07-16T19:59:05.630Z,3.50
2018-07-16T20:01:35.345Z,3.43
2018-07-16T20:04:05.357Z,3.13
2018-07-16T20:06:34.326Z,3.30
2018-07-16T20:09:02.993Z,2.97
2018-07-16T20:11:34.286Z,3.57
2018-07-16T20:14:06.103Z,3.60
2018-07-16T20:16:37.602Z,3.90
2018-07-16T20:19:06.765Z,4.40
2018-07-16T20:21:34.938Z,4.30
2018-07-16T20:24:03.013Z,3.97
2018-07-16T20:26:31.130Z,4.00
2018-07-16T20:28:59.408Z,4.30
2018-07-16T20:31:27.872Z,3.90
2018-07-16T20:33:55.931Z,4.00
2018-07-16T20:36:23.897Z,3.83
2018-07-16T20:38:52.465Z,4.30
2018-07-16T20:41:22.962Z,4.17
2018-07-16T20:43:52.827Z,3.50
2018-07-16T20:46:22.508Z,3.80
2018-07-16T20:48:50.906Z,4.00
2018-07-16T20:51:20.183Z,4.40
2018-07-16T20:53:48.176Z,4.50
2018-07-16T20:56:17.199Z,4.27
2018-07-16T20:58:46.011Z,4.80
2018-07-16T21:01:14.159Z,4.70
2018-07-16T21:03:42.991Z,5.10
2018-07-16T21:06:15.814Z,4.53
2018-07-16T21:08:44.626Z,4.87
2018-07-16T21:11:13.309Z,5.00
2018-07-16T21:13:42.715Z,5.23
2018-07-16T21:16:17.655Z,5.00
2018-07-16T21:18:47.855Z,4.77
2018-07-16T21:21:17.623Z,5.07
2018-07-16T21:23:46.350Z,4.97
2018-07-16T21:26:15.075Z,23.77
2018-07-16T21:28:43.783Z,26.37
2018-07-16T21:31:14.616Z,27.00
2018-07-16T21:33:44.064Z,21.80
2018-07-16T21:36:15.285Z,9.07
2018-07-16T21:38:44.170Z,22.33
2018-07-16T21:41:14.647Z,6.57
2018-07-16T21:43:45.776Z,5.90
2018-07-16T21:46:16.887Z,6.33
2018-07-16T21:48:49.086Z,7.47
2018-07-16T21:51:18.850Z,5.40
2018-07-16T21:53:47.385Z,8.97
2018-07-16T21:56:15.772Z,14.33
2018-07-16T21:58:44.128Z,22.63
2018-07-16T22:01:13.913Z,19.73
2018-07-16T22:03:42.447Z,19.87
2018-07-16T22:06:14.255Z,23.67
2018-07-16T22:08:46.350Z,14.00
2018-07-16T22:11:15.657Z,5.67
2018-07-16T22:14:19.885Z,4.60
2018-07-16T22:16:51.318Z,4.43
2018-07-16T22:19:21.442Z,6.53
2018-07-16T22:21:52.700Z,4.70
2018-07-16T22:24:21.180Z,4.33
2018-07-16T22:26:56.241Z,4.30
2018-07-16T22:29:26.826Z,4.70
2018-07-16T22:31:58.940Z,4.30
2018-07-16T22:34:28.732Z,4.50
2018-07-16T22:37:02.679Z,4.60
2018-07-16T22:39:35.306Z,4.73
2018-07-16T22:42:06.427Z,5.07
2018-07-16T22:44:39.094Z,5.17
2018-07-16T22:47:09.300Z,4.97
2018-07-16T22:49:39.175Z,5.10
2018-07-16T22:52:09.233Z,4.77
2018-07-16T22:54:38.561Z,5.33
2018-07-16T22:57:07.529Z,4.70
2018-07-16T22:59:36.196Z,4.27
2018-07-16T23:02:04.713Z,4.80
2018-07-16T23:04:33.601Z,5.03
2018-07-16T23:07:03.093Z,6.87
2018-07-16T23:09:31.317Z,11.17
2018-07-16T23:12:01.618Z,4.97
2018-07-16T23:14:30.848Z,5.23
2018-07-16T23:17:00.995Z,4.50
2018-07-16T23:19:29.185Z,18.73
2018-07-16T23:21:57.522Z,40.33
2018-07-16T23:24:25.648Z,12.33
2018-07-16T23:26:57.669Z,17.83
2018-07-16T23:29:26.758Z,6.07
2018-07-16T23:31:55.369Z,19.00
2018-07-16T23:34:23.832Z,10.50
2018-07-16T23:36:52.277Z,14.90
2018-07-16T23:39:20.588Z,6.27
2018-07-16T23:41:48.708Z,5.40
2018-07-16T23:44:19.404Z,5.20
2018-07-16T23:46:47.873Z,4.60
2018-07-16T23:49:16.082Z,5.03
2018-07-16T23:51:44.501Z,4.73
2018-07-16T23:54:12.750Z,4.53
2018-07-16T23:56:41.330Z,4.83
2018-07-16T23:59:09.709Z,4.77
